Time;durP1;ratioP1;P1;durP2;ratioP2;P2;SDS_P1;SDS_P2;PMS_P1;PMS_P2;Temp;Humidity;BMP_temperature;BMP_pressure;BME280_temperature;BME280_humidity;BME280_pressure;Samples;Min_cycle;Max_cycle;Signal;HPM_P1;HPM_P2
2023/08/19 00:01:59;;;;;;;75.05;27.90;;;18.00;99.90;;;;;;5041490;28;20048;-59
2023/08/19 00:04:26;;;;;;;74.53;28.75;;;18.00;99.90;;;;;;5047614;28;20065;-60
2023/08/19 00:06:54;;;;;;;81.60;28.23;;;18.00;99.90;;;;;;5046984;28;20076;-60
2023/08/19 00:09:22;;;;;;;80.93;28.52;;;18.00;99.90;;;;;;5046733;28;20049;-60
2023/08/19 00:11:49;;;;;;;74.80;28.27;;;18.00;99.90;;;;;;5047297;28;20523;-60
2023/08/19 00:14:20;;;;;;;78.13;28.15;;;18.00;99.90;;;;;;5054040;28;20413;-60
2023/08/19 00:16:48;;;;;;;77.20;28.42;;;18.00;99.90;;;;;;5045855;28;20040;-59
2023/08/19 00:19:16;;;;;;;84.07;30.23;;;18.00;99.90;;;;;;5047372;28;20052;-59
2023/08/19 00:21:44;;;;;;;86.50;30.00;;;18.00;99.90;;;;;;5048018;28;20373;-60
2023/08/19 00:24:11;;;;;;;83.57;30.10;;;18.00;99.90;;;;;;5046660;28;20049;-60
2023/08/19 00:26:39;;;;;;;87.85;31.85;;;18.10;99.90;;;;;;5047100;28;20052;-59
2023/08/19 00:29:07;;;;;;;86.55;30.33;;;18.10;99.90;;;;;;5046467;28;20400;-59
2023/08/19 00:31:39;;;;;;;90.85;32.28;;;18.10;99.90;;;;;;5047190;28;20510;-59
2023/08/19 00:34:07;;;;;;;85.88;31.90;;;18.10;99.90;;;;;;5050819;28;20049;-59
2023/08/19 00:36:35;;;;;;;92.07;31.65;;;18.20;99.90;;;;;;5046083;28;20036;-59
2023/08/19 00:39:03;;;;;;;93.78;32.08;;;18.20;99.90;;;;;;5032593;28;20045;-59
2023/08/19 00:41:32;;;;;;;86.32;31.13;;;18.20;99.90;;;;;;5029890;28;20369;-59
2023/08/19 00:44:01;;;;;;;85.32;28.58;;;18.20;99.90;;;;;;5045863;28;20052;-60
2023/08/19 00:46:29;;;;;;;76.18;28.17;;;18.30;99.90;;;;;;5046415;28;20529;-59
2023/08/19 00:48:58;;;;;;;85.18;29.77;;;18.30;99.90;;;;;;5029097;28;20044;-60
2023/08/19 00:51:26;;;;;;;86.03;30.08;;;18.30;99.90;;;;;;5046396;28;20393;-59
2023/08/19 00:53:55;;;;;;;98.47;33.60;;;18.30;99.90;;;;;;5046623;28;20076;-59
2023/08/19 00:56:23;;;;;;;87.82;30.70;;;18.30;99.90;;;;;;5046011;28;20056;-59
2023/08/19 00:58:50;;;;;;;106.63;32.17;;;18.40;99.90;;;;;;5054384;28;20048;-60
2023/08/19 01:01:20;;;;;;;93.50;31.35;;;18.40;99.90;;;;;;5046390;28;20056;-60
2023/08/19 01:03:51;;;;;;;78.68;28.48;;;18.40;99.90;;;;;;5043812;28;20044;-60
2023/08/19 01:06:33;;;;;;;80.30;29.30;;;18.40;99.90;;;;;;5042363;28;20056;-60
2023/08/19 01:09:16;;;;;;;72.65;27.73;;;18.40;99.90;;;;;;5033884;28;20068;-61
2023/08/19 01:12:02;;;;;;;71.47;26.33;;;18.40;99.90;;;;;;5042445;28;20053;-61
2023/08/19 01:14:51;;;;;;;72.53;25.83;;;18.40;99.90;;;;;;5032435;28;20485;-60
2023/08/19 01:17:24;;;;;;;59.33;23.20;;;18.40;99.90;;;;;;5026474;28;20056;-60
2023/08/19 01:19:53;;;;;;;48.90;19.70;;;18.40;99.90;;;;;;5041421;28;20056;-60
2023/08/19 01:22:33;;;;;;;45.13;20.05;;;18.50;99.90;;;;;;5041813;28;20044;-60
2023/08/19 01:25:02;;;;;;;;;;;18.50;99.90;;;;;;5041652;28;20083;-60
2023/08/19 01:27:30;;;;;;;39.95;16.00;;;18.50;99.90;;;;;;5028977;28;19921;-62
2023/08/19 01:29:58;;;;;;;33.22;14.68;;;18.50;99.90;;;;;;5046827;28;20037;-60
2023/08/19 01:32:26;;;;;;;23.25;11.80;;;18.40;99.90;;;;;;5044235;28;20045;-60
2023/08/19 01:34:55;;;;;;;16.80;9.15;;;18.40;99.90;;;;;;5050373;28;20037;-60
2023/08/19 01:37:55;;;;;;;21.73;8.90;;;18.40;99.90;;;;;;5049658;28;20053;-60
2023/08/19 01:40:24;;;;;;;18.27;6.55;;;18.30;99.90;;;;;;5040777;28;20048;-60
2023/08/19 01:42:54;;;;;;;10.85;5.20;;;18.30;99.90;;;;;;5049317;28;20049;-60
2023/08/19 01:45:23;;;;;;;14.88;6.30;;;18.20;99.90;;;;;;5050388;28;20052;-60
2023/08/19 01:47:54;;;;;;;12.48;5.65;;;18.20;99.90;;;;;;5046494;28;20049;-60
2023/08/19 01:50:21;;;;;;;11.18;5.47;;;18.20;99.90;;;;;;5024369;28;20041;-60
2023/08/19 01:52:49;;;;;;;11.35;4.85;;;18.10;99.90;;;;;;5038752;28;20049;-61
2023/08/19 01:55:17;;;;;;;9.70;4.55;;;18.10;99.90;;;;;;5039190;28;20049;-60
2023/08/19 01:57:45;;;;;;;11.07;5.03;;;18.10;99.90;;;;;;5046566;28;20045;-61
2023/08/19 02:00:13;;;;;;;12.23;5.18;;;18.00;99.90;;;;;;5046017;28;20060;-61
2023/08/19 02:02:41;;;;;;;10.95;5.40;;;18.00;99.90;;;;;;5028190;28;20061;-61
2023/08/19 02:05:13;;;;;;;13.48;5.82;;;18.10;99.90;;;;;;5057285;28;20550;-62
2023/08/19 02:07:42;;;;;;;10.93;4.45;;;18.10;99.90;;;;;;5053449;28;20056;-61
2023/08/19 02:10:13;;;;;;;13.60;5.20;;;18.20;99.90;;;;;;5052130;28;20040;-61
2023/08/19 02:12:43;;;;;;;13.23;5.13;;;18.10;99.90;;;;;;5051572;28;20495;-61
2023/08/19 02:15:10;;;;;;;9.07;3.65;;;18.10;99.90;;;;;;5052334;28;20060;-61
2023/08/19 02:17:38;;;;;;;10.25;3.33;;;18.10;99.90;;;;;;5052744;28;20521;-61
2023/08/19 02:20:07;;;;;;;10.45;2.97;;;18.10;99.90;;;;;;5034086;28;20041;-60
2023/08/19 02:22:36;;;;;;;12.60;3.47;;;18.00;99.90;;;;;;5035434;28;20562;-61
2023/08/19 02:25:04;;;;;;;9.90;2.78;;;18.00;99.90;;;;;;5053051;28;20427;-61
2023/08/19 02:27:33;;;;;;;4.88;2.33;;;17.90;99.90;;;;;;5051612;28;20041;-61
2023/08/19 02:30:02;;;;;;;8.77;3.33;;;17.90;99.90;;;;;;5051550;28;20033;-61
2023/08/19 02:32:29;;;;;;;11.43;3.08;;;17.80;99.90;;;;;;5033657;28;20412;-60
2023/08/19 02:35:01;;;;;;;5.78;2.83;;;17.70;99.90;;;;;;5035385;28;20172;-61
2023/08/19 02:37:30;;;;;;;10.63;3.13;;;17.70;99.90;;;;;;5052376;28;20062;-60
2023/08/19 02:39:58;;;;;;;7.82;2.50;;;17.60;99.90;;;;;;5052912;28;20036;-63
2023/08/19 02:42:26;;;;;;;7.53;2.90;;;17.60;99.90;;;;;;5052253;28;20408;-60
2023/08/19 02:44:54;;;;;;;11.77;2.85;;;17.50;99.90;;;;;;5052025;28;20045;-60
2023/08/19 02:47:25;;;;;;;7.60;2.50;;;17.60;99.90;;;;;;5051218;28;20061;-60
2023/08/19 02:49:53;;;;;;;9.60;2.53;;;17.50;99.90;;;;;;5051534;28;20037;-60
2023/08/19 02:52:20;;;;;;;12.30;2.85;;;17.50;99.90;;;;;;5052220;28;20049;-60
2023/08/19 02:54:48;;;;;;;7.30;2.40;;;17.50;99.90;;;;;;5050948;28;20077;-60
2023/08/19 02:57:16;;;;;;;10.90;3.03;;;17.50;99.90;;;;;;5051002;28;20044;-60
2023/08/19 02:59:44;;;;;;;8.10;2.45;;;17.40;99.90;;;;;;5051415;28;20044;-60
2023/08/19 03:02:11;;;;;;;13.05;2.95;;;17.40;99.90;;;;;;5052725;28;20059;-60
2023/08/19 03:04:39;;;;;;;10.98;2.50;;;17.40;99.90;;;;;;5051090;28;20056;-60
2023/08/19 03:07:07;;;;;;;8.75;2.17;;;17.40;99.90;;;;;;5049858;28;20041;-61
2023/08/19 03:09:36;;;;;;;12.48;2.80;;;17.40;99.90;;;;;;5039317;28;20123;-60
2023/08/19 03:12:04;;;;;;;15.27;2.78;;;17.30;99.90;;;;;;5052340;28;20056;-60
2023/08/19 03:14:31;;;;;;;6.80;1.88;;;17.30;99.90;;;;;;5051890;28;20037;-60
2023/08/19 03:16:59;;;;;;;9.52;2.20;;;17.30;99.90;;;;;;5051286;28;20041;-60
2023/08/19 03:19:27;;;;;;;10.00;2.35;;;17.30;99.90;;;;;;5052423;28;20037;-60
2023/08/19 03:21:55;;;;;;;14.60;2.63;;;17.30;99.90;;;;;;5050549;28;20052;-60
2023/08/19 03:24:22;;;;;;;12.10;2.30;;;17.20;99.90;;;;;;5050905;28;20052;-60
2023/08/19 03:26:50;;;;;;;6.03;1.85;;;17.10;99.90;;;;;;5051421;28;20037;-60
2023/08/19 03:29:18;;;;;;;17.42;2.50;;;17.20;99.90;;;;;;5052152;28;20511;-61
2023/08/19 03:31:46;;;;;;;10.25;1.85;;;17.10;99.90;;;;;;5033548;28;20049;-61
2023/08/19 03:34:13;;;;;;;8.93;2.55;;;17.10;99.90;;;;;;5052053;28;20036;-61
2023/08/19 03:36:41;;;;;;;9.82;2.58;;;17.10;99.90;;;;;;5050368;28;20056;-61
2023/08/19 03:39:09;;;;;;;8.10;2.08;;;17.10;99.90;;;;;;5051795;28;20045;-62
2023/08/19 03:41:37;;;;;;;12.43;2.53;;;17.00;99.90;;;;;;5050005;28;20063;-62
2023/08/19 03:44:05;;;;;;;14.30;2.65;;;17.00;99.90;;;;;;5050748;28;20045;-61
2023/08/19 03:46:33;;;;;;;14.77;2.92;;;17.00;99.90;;;;;;5050102;28;20056;-61
2023/08/19 03:49:00;;;;;;;12.07;2.58;;;17.00;99.90;;;;;;5050434;28;20040;-61
2023/08/19 03:51:30;;;;;;;15.77;2.55;;;17.10;99.90;;;;;;5049844;28;20053;-62
2023/08/19 03:53:58;;;;;;;8.38;1.90;;;17.00;99.90;;;;;;5050109;28;20033;-62
2023/08/19 03:56:25;;;;;;;14.50;2.72;;;17.00;99.90;;;;;;5051517;28;20044;-63
2023/08/19 03:58:56;;;;;;;12.07;1.92;;;17.00;99.90;;;;;;5046695;28;20044;-62
2023/08/19 04:01:24;;;;;;;12.85;2.40;;;17.00;99.90;;;;;;5049635;28;20052;-62
2023/08/19 04:03:51;;;;;;;11.68;2.25;;;17.00;99.90;;;;;;5051779;28;20049;-61
2023/08/19 04:06:19;;;;;;;13.25;2.58;;;16.90;99.90;;;;;;5049777;28;20045;-61
2023/08/19 04:08:47;;;;;;;14.48;1.77;;;16.90;99.90;;;;;;5050554;28;20045;-61
2023/08/19 04:11:14;;;;;;;12.85;2.60;;;16.90;99.90;;;;;;5050418;28;20051;-61
2023/08/19 04:13:43;;;;;;;12.20;1.98;;;16.90;99.90;;;;;;5050393;28;20049;-61
2023/08/19 04:16:11;;;;;;;11.23;2.22;;;16.80;99.90;;;;;;5033407;28;20512;-61
2023/08/19 04:18:38;;;;;;;7.22;2.10;;;16.80;99.90;;;;;;5050375;28;20053;-62
2023/08/19 04:21:09;;;;;;;;;;;16.80;99.90;;;;;;5050725;28;20041;-61
2023/08/19 04:23:36;;;;;;;17.98;3.03;;;16.70;99.90;;;;;;5050077;28;19988;-62
2023/08/19 04:26:05;;;;;;;11.52;2.20;;;16.70;99.90;;;;;;5051227;28;20052;-62
2023/08/19 04:28:33;;;;;;;11.93;1.98;;;16.70;99.90;;;;;;5050503;28;20041;-61
2023/08/19 04:31:06;;;;;;;18.05;2.17;;;16.60;99.90;;;;;;5050159;28;20049;-61
2023/08/19 04:33:56;;;;;;;15.77;1.95;;;16.60;99.90;;;;;;5049267;28;20056;-61
2023/08/19 04:36:25;;;;;;;13.43;2.25;;;16.50;99.90;;;;;;5050016;28;20037;-61
2023/08/19 04:38:53;;;;;;;17.10;2.20;;;16.50;99.90;;;;;;5050027;28;20052;-62
2023/08/19 04:41:21;;;;;;;16.17;2.50;;;16.50;99.90;;;;;;5049373;28;20045;-61
2023/08/19 04:43:50;;;;;;;18.10;2.25;;;16.40;99.90;;;;;;5050073;28;20037;-61
2023/08/19 04:46:17;;;;;;;10.98;2.15;;;16.40;99.90;;;;;;5049225;28;20052;-61
2023/08/19 04:48:45;;;;;;;16.38;2.45;;;16.40;99.90;;;;;;5038990;28;20068;-62
2023/08/19 04:51:13;;;;;;;13.48;2.33;;;16.40;99.90;;;;;;5046443;28;20049;-62
2023/08/19 04:53:41;;;;;;;13.70;2.90;;;16.40;99.90;;;;;;5029729;28;20053;-62
2023/08/19 04:56:09;;;;;;;16.40;3.25;;;16.40;99.90;;;;;;5045395;28;20056;-62
2023/08/19 04:58:36;;;;;;;16.30;2.40;;;16.40;99.90;;;;;;5041632;28;20056;-62
2023/08/19 05:01:04;;;;;;;15.70;2.28;;;16.30;99.90;;;;;;5067995;28;20048;-62
2023/08/19 05:03:34;;;;;;;15.63;2.45;;;16.30;99.90;;;;;;5037701;28;20044;-62
2023/08/19 05:06:02;;;;;;;17.50;3.42;;;16.40;99.90;;;;;;5045613;28;20048;-62
2023/08/19 05:08:37;;;;;;;22.85;2.58;;;16.30;99.90;;;;;;5032467;28;20053;-62
2023/08/19 05:11:06;;;;;;;18.83;2.55;;;16.30;99.90;;;;;;5044778;28;20424;-63
2023/08/19 05:13:34;;;;;;;20.88;2.70;;;16.30;99.90;;;;;;5046763;28;20052;-61
2023/08/19 05:16:04;;;;;;;20.15;3.25;;;16.30;99.90;;;;;;5045136;28;20480;-62
2023/08/19 05:18:32;;;;;;;14.77;2.30;;;16.20;99.90;;;;;;5049343;28;20049;-61
2023/08/19 05:21:00;;;;;;;18.73;2.80;;;16.20;99.90;;;;;;5049498;28;20500;-63
2023/08/19 05:23:27;;;;;;;20.35;2.92;;;16.20;99.90;;;;;;5016647;28;20041;-62
2023/08/19 05:25:55;;;;;;;19.30;2.30;;;16.20;99.90;;;;;;5049169;28;20415;-62
2023/08/19 05:28:23;;;;;;;13.23;2.53;;;16.20;99.90;;;;;;5047959;28;20045;-62
2023/08/19 05:30:51;;;;;;;16.52;2.63;;;16.30;99.90;;;;;;5046448;28;20053;-62
2023/08/19 05:33:19;;;;;;;12.88;2.30;;;16.20;99.90;;;;;;5044526;28;20056;-62
2023/08/19 05:35:46;;;;;;;14.32;2.50;;;16.30;99.90;;;;;;5047075;28;20041;-62
2023/08/19 05:38:14;;;;;;;20.52;2.10;;;16.30;99.90;;;;;;5045404;28;20068;-62
2023/08/19 05:40:42;;;;;;;12.95;2.53;;;16.40;99.90;;;;;;5047005;28;20060;-62
2023/08/19 05:43:12;;;;;;;14.35;2.28;;;16.40;99.90;;;;;;5046740;28;20503;-62
2023/08/19 05:45:40;;;;;;;14.20;2.42;;;16.40;99.90;;;;;;5029735;28;20044;-62
2023/08/19 05:48:08;;;;;;;14.60;2.38;;;16.40;99.90;;;;;;5042704;28;20048;-62
2023/08/19 05:50:36;;;;;;;21.15;3.47;;;16.40;99.90;;;;;;5037326;28;20052;-62
2023/08/19 05:53:03;;;;;;;19.52;2.10;;;16.40;99.90;;;;;;5050041;28;20055;-62
2023/08/19 05:55:31;;;;;;;25.48;2.97;;;16.40;99.90;;;;;;5053608;28;20044;-61
2023/08/19 05:57:58;;;;;;;23.27;3.30;;;16.40;99.90;;;;;;5051999;28;20400;-62
2023/08/19 06:00:26;;;;;;;15.95;3.05;;;16.50;99.90;;;;;;5055447;28;20473;-63
2023/08/19 06:02:54;;;;;;;8.43;1.48;;;16.50;99.90;;;;;;5047376;28;20064;-62
2023/08/19 06:05:22;;;;;;;14.05;2.35;;;16.50;99.90;;;;;;5049782;28;20044;-63
2023/08/19 06:07:52;;;;;;;10.32;2.08;;;16.50;99.90;;;;;;5050476;28;20053;-62
2023/08/19 06:10:20;;;;;;;21.10;2.80;;;16.60;99.90;;;;;;5049716;28;20052;-62
2023/08/19 06:12:48;;;;;;;18.85;2.72;;;16.60;99.90;;;;;;5048900;28;20044;-62
2023/08/19 06:15:18;;;;;;;;;;;16.50;99.90;;;;;;5050003;28;20373;-62
2023/08/19 06:17:46;;;;;;;14.10;2.13;;;16.60;99.90;;;;;;5048589;28;19927;-62
2023/08/19 06:20:14;;;;;;;11.65;2.03;;;16.60;99.90;;;;;;5049981;28;20040;-62
2023/08/19 06:22:42;;;;;;;19.23;2.88;;;16.60;99.90;;;;;;5049599;28;20054;-62
2023/08/19 06:25:11;;;;;;;12.43;1.95;;;16.70;99.90;;;;;;5048748;28;20052;-63
2023/08/19 06:27:38;;;;;;;14.40;2.15;;;16.70;99.90;;;;;;5051860;28;20518;-63
2023/08/19 06:30:07;;;;;;;22.15;3.10;;;16.80;99.90;;;;;;5069818;28;20053;-64
2023/08/19 06:32:35;;;;;;;20.75;3.55;;;16.80;99.90;;;;;;5060455;28;20060;-63
2023/08/19 06:35:03;;;;;;;13.70;2.25;;;17.00;99.90;;;;;;5049449;28;20045;-62
2023/08/19 06:37:36;;;;;;;17.02;2.67;;;17.00;99.90;;;;;;5044746;28;20562;-62
2023/08/19 06:40:06;;;;;;;16.08;1.90;;;17.10;99.90;;;;;;5044255;28;20048;-62
2023/08/19 06:42:35;;;;;;;10.15;2.38;;;17.20;99.90;;;;;;5045156;28;20507;-63
2023/08/19 06:45:06;;;;;;;11.23;1.85;;;17.30;99.90;;;;;;5045750;28;20045;-63
2023/08/19 06:47:38;;;;;;;18.05;2.42;;;17.30;99.90;;;;;;5048124;28;20040;-62
2023/08/19 06:50:06;;;;;;;15.52;1.92;;;17.40;99.90;;;;;;5063461;28;20045;-62
2023/08/19 06:52:35;;;;;;;12.48;2.08;;;17.40;99.90;;;;;;5046442;28;20057;-63
2023/08/19 06:55:03;;;;;;;12.30;2.00;;;17.40;99.90;;;;;;5031489;28;20052;-62
2023/08/19 06:57:38;;;;;;;13.90;1.83;;;17.50;99.90;;;;;;5046004;28;20057;-62
2023/08/19 07:00:09;;;;;;;10.05;1.60;;;17.50;99.90;;;;;;5052770;28;20052;-62
2023/08/19 07:02:38;;;;;;;13.20;1.95;;;17.50;99.90;;;;;;5035347;28;20037;-63
2023/08/19 07:05:13;;;;;;;10.97;1.67;;;17.60;99.90;;;;;;5024955;28;20493;-63
2023/08/19 07:07:46;;;;;;;9.27;1.77;;;17.70;99.90;;;;;;5033654;28;20049;-62
2023/08/19 07:10:20;;;;;;;8.05;1.58;;;17.70;99.90;;;;;;5041710;28;20058;-63
2023/08/19 07:12:49;;;;;;;7.88;1.05;;;17.80;99.90;;;;;;5048005;28;20037;-62
2023/08/19 07:15:17;;;;;;;12.20;1.55;;;17.80;99.90;;;;;;5047875;28;20076;-61
2023/08/19 07:17:47;;;;;;;7.55;1.50;;;17.90;99.90;;;;;;5050956;28;20074;-61
2023/08/19 07:20:19;;;;;;;7.80;1.17;;;17.90;99.90;;;;;;5041010;28;20052;-62
2023/08/19 07:22:49;;;;;;;12.18;1.55;;;18.00;99.90;;;;;;5047456;28;20052;-61
2023/08/19 07:25:18;;;;;;;10.95;1.63;;;18.00;99.90;;;;;;5043852;28;20417;-62
2023/08/19 07:27:46;;;;;;;7.57;1.20;;;18.00;99.90;;;;;;5052722;28;20616;-62
2023/08/19 07:30:14;;;;;;;9.40;1.23;;;18.00;99.90;;;;;;5056457;28;20055;-62
2023/08/19 07:32:42;;;;;;;7.32;1.25;;;18.00;99.90;;;;;;5045452;28;20053;-62
2023/08/19 07:35:10;;;;;;;7.55;1.42;;;18.10;99.90;;;;;;5035218;28;20045;-61
2023/08/19 07:37:38;;;;;;;4.93;1.30;;;18.00;99.90;;;;;;5043996;28;20392;-62
2023/08/19 07:40:07;;;;;;;4.82;1.27;;;18.00;99.90;;;;;;5045069;28;20055;-61
2023/08/19 07:42:35;;;;;;;8.60;1.27;;;18.10;99.90;;;;;;5044944;28;20060;-61
2023/08/19 07:45:05;;;;;;;12.95;1.38;;;18.10;99.90;;;;;;5048838;28;20056;-61
2023/08/19 07:47:32;;;;;;;5.60;0.73;;;18.10;99.90;;;;;;5047258;28;20056;-61
2023/08/19 07:50:03;;;;;;;3.17;0.55;;;18.20;99.90;;;;;;5034927;28;20407;-61
2023/08/19 07:52:32;;;;;;;5.47;0.82;;;18.30;99.90;;;;;;5048336;28;20067;-62
2023/08/19 07:54:59;;;;;;;5.22;0.90;;;18.40;99.90;;;;;;5041457;28;20040;-62
2023/08/19 07:57:27;;;;;;;5.60;1.15;;;18.50;99.90;;;;;;5038900;28;20048;-62
2023/08/19 07:59:55;;;;;;;6.80;1.00;;;18.60;99.90;;;;;;5047845;28;20045;-62
2023/08/19 08:02:23;;;;;;;6.75;0.73;;;18.70;99.90;;;;;;5039996;28;20085;-61
2023/08/19 08:04:54;;;;;;;1.83;0.60;;;18.70;99.90;;;;;;5031014;28;20049;-61
2023/08/19 08:07:23;;;;;;;4.90;1.33;;;18.80;99.90;;;;;;5038571;28;20045;-60
2023/08/19 08:09:50;;;;;;;3.25;0.73;;;18.80;99.90;;;;;;5045412;28;20052;-61
2023/08/19 08:12:18;;;;;;;3.30;0.85;;;18.80;99.90;;;;;;5028844;28;20677;-61
2023/08/19 08:14:46;;;;;;;7.70;1.15;;;18.80;99.90;;;;;;5033406;28;20049;-61
2023/08/19 08:17:13;;;;;;;5.50;0.80;;;18.80;99.90;;;;;;5038810;28;20048;-61
2023/08/19 08:19:41;;;;;;;5.82;0.95;;;18.80;99.90;;;;;;5029447;28;20056;-61
2023/08/19 08:22:09;;;;;;;4.45;0.85;;;18.80;99.90;;;;;;5041403;28;20045;-62
2023/08/19 08:24:36;;;;;;;4.40;0.77;;;18.80;99.90;;;;;;5046743;28;20048;-62
2023/08/19 08:27:04;;;;;;;4.13;0.80;;;18.80;99.90;;;;;;5046311;28;20477;-61
2023/08/19 08:29:32;;;;;;;4.18;0.93;;;19.00;99.90;;;;;;5045997;28;20053;-61
2023/08/19 08:32:00;;;;;;;6.25;0.88;;;19.00;99.90;;;;;;5047672;28;20053;-61
2023/08/19 08:34:28;;;;;;;4.93;1.25;;;18.90;99.90;;;;;;5042789;28;20048;-63
2023/08/19 08:36:55;;;;;;;8.38;1.00;;;18.90;99.90;;;;;;5027534;28;20041;-65
2023/08/19 08:39:23;;;;;;;6.50;0.82;;;18.80;99.90;;;;;;5045569;28;20057;-62
2023/08/19 08:41:51;;;;;;;6.63;1.10;;;18.80;99.90;;;;;;5046556;28;20040;-62
2023/08/19 08:44:21;;;;;;;5.78;1.00;;;18.80;99.90;;;;;;5047557;28;20048;-63
2023/08/19 08:46:50;;;;;;;4.38;0.77;;;18.90;99.90;;;;;;5047917;28;20393;-63
2023/08/19 08:49:18;;;;;;;4.60;1.20;;;18.90;99.90;;;;;;5062311;28;20523;-63
2023/08/19 08:51:47;;;;;;;6.93;1.08;;;18.90;99.90;;;;;;5066854;28;20915;-62
2023/08/19 08:54:16;;;;;;;8.73;1.33;;;18.90;99.90;;;;;;5038405;28;20041;-63
2023/08/19 08:56:43;;;;;;;3.92;0.80;;;19.00;99.90;;;;;;5046392;28;20060;-64
2023/08/19 08:59:12;;;;;;;5.95;0.80;;;19.00;99.90;;;;;;5047220;28;20064;-63
2023/08/19 09:01:45;;;;;;;4.57;0.80;;;19.10;99.90;;;;;;5046580;28;20049;-63
2023/08/19 09:04:15;;;;;;;7.38;1.05;;;19.10;99.90;;;;;;5043560;28;20048;-62
2023/08/19 09:06:46;;;;;;;3.17;1.02;;;19.10;99.90;;;;;;5043205;28;20045;-62
2023/08/19 09:09:14;;;;;;;6.47;1.35;;;19.10;99.90;;;;;;5044953;28;20061;-62
2023/08/19 09:11:47;;;;;;;3.20;0.80;;;19.00;99.90;;;;;;5027515;28;20041;-62
2023/08/19 09:14:42;;;;;;;3.83;0.70;;;19.10;99.90;;;;;;5040068;28;20511;-62
2023/08/19 09:17:14;;;;;;;5.55;1.00;;;19.20;99.90;;;;;;5047478;28;20048;-61
2023/08/19 09:19:42;;;;;;;3.15;0.60;;;19.10;99.90;;;;;;5035703;28;20481;-62
2023/08/19 09:22:16;;;;;;;5.13;0.63;;;19.20;99.90;;;;;;5028841;28;20046;-61
2023/08/19 09:24:44;;;;;;;6.75;1.00;;;19.20;99.90;;;;;;5045173;28;20048;-62
2023/08/19 09:27:13;;;;;;;5.07;1.17;;;19.20;99.90;;;;;;5037454;28;20508;-63
2023/08/19 09:29:50;;;;;;;5.80;0.80;;;19.30;99.90;;;;;;5032072;28;20477;-61
2023/08/19 09:32:32;;;;;;;3.45;0.60;;;19.50;99.90;;;;;;5035047;28;20045;-62
2023/08/19 09:35:11;;;;;;;4.97;0.63;;;19.60;99.90;;;;;;5047224;28;20051;-63
2023/08/19 09:37:41;;;;;;;5.38;0.52;;;19.70;99.90;;;;;;5044052;28;20040;-63
2023/08/19 09:40:18;;;;;;;8.55;1.08;;;19.80;99.90;;;;;;5026386;28;20052;-64
2023/08/19 09:42:49;;;;;;;6.25;0.90;;;19.90;99.90;;;;;;5042393;28;20124;-63
2023/08/19 09:45:18;;;;;;;5.13;1.00;;;19.90;99.90;;;;;;5046674;28;20053;-62
2023/08/19 09:47:50;;;;;;;5.32;0.82;;;20.10;99.90;;;;;;5051368;28;20045;-62
2023/08/19 09:50:23;;;;;;;5.07;1.38;;;20.20;99.90;;;;;;5059471;28;20051;-63
2023/08/19 09:53:00;;;;;;;6.65;1.17;;;20.30;99.90;;;;;;5045235;28;20048;-64
2023/08/19 09:55:32;;;;;;;3.90;0.70;;;20.30;99.90;;;;;;5040372;28;20060;-62
2023/08/19 09:57:59;;;;;;;3.38;0.90;;;20.30;99.90;;;;;;5036555;28;20049;-62
2023/08/19 10:00:27;;;;;;;5.88;1.27;;;20.30;99.90;;;;;;5049964;28;20400;-62
2023/08/19 10:02:56;;;;;;;6.30;1.02;;;20.30;99.90;;;;;;5039371;28;20400;-62
2023/08/19 10:05:27;;;;;;;6.40;1.00;;;20.30;99.90;;;;;;5038620;28;20049;-62
2023/08/19 10:08:03;;;;;;;4.75;0.90;;;20.30;99.90;;;;;;5036931;28;20056;-62
2023/08/19 10:10:40;;;;;;;4.32;0.85;;;20.40;99.90;;;;;;5030225;28;20046;-61
2023/08/19 10:13:11;;;;;;;6.47;0.80;;;20.50;99.90;;;;;;5043738;28;20045;-63
2023/08/19 10:15:42;;;;;;;4.78;0.77;;;20.50;99.90;;;;;;5044612;28;20049;-62
2023/08/19 10:18:19;;;;;;;7.20;1.00;;;20.60;99.90;;;;;;5046105;28;20373;-63
2023/08/19 10:20:52;;;;;;;3.42;0.82;;;20.70;99.90;;;;;;5047004;28;20064;-62
2023/08/19 10:23:22;;;;;;;3.83;0.77;;;20.80;99.90;;;;;;5036088;28;20033;-62
2023/08/19 10:25:50;;;;;;;5.63;0.60;;;20.80;99.90;;;;;;5040767;28;20045;-62
2023/08/19 10:28:28;;;;;;;3.67;1.15;;;20.80;99.90;;;;;;5043046;28;20056;-62
2023/08/19 10:31:13;;;;;;;4.05;1.00;;;20.80;99.90;;;;;;5037737;28;20041;-62
2023/08/19 10:33:44;;;;;;;5.25;1.08;;;20.90;99.90;;;;;;5054970;28;20048;-62
2023/08/19 10:36:17;;;;;;;3.65;0.98;;;21.00;99.90;;;;;;5045243;28;20052;-62
2023/08/19 10:38:51;;;;;;;3.80;0.98;;;21.10;99.90;;;;;;5046186;28;20034;-63
2023/08/19 10:41:27;;;;;;;5.97;0.80;;;21.20;99.90;;;;;;5046375;28;20124;-62
2023/08/19 10:44:01;;;;;;;1.73;0.40;;;21.20;99.90;;;;;;5043603;28;20102;-62
2023/08/19 10:46:43;;;;;;;5.13;0.80;;;21.30;99.90;;;;;;5034331;28;20370;-62
2023/08/19 10:49:17;;;;;;;8.60;1.05;;;21.40;99.90;;;;;;5033617;28;20060;-62
2023/08/19 10:51:50;;;;;;;3.63;0.43;;;21.50;99.90;;;;;;5046783;28;20045;-62
2023/08/19 10:54:40;;;;;;;0.98;0.45;;;21.60;99.90;;;;;;5036271;28;20052;-64
2023/08/19 10:57:15;;;;;;;5.72;1.02;;;21.70;99.90;;;;;;5028991;28;20057;-62
2023/08/19 10:59:47;;;;;;;2.67;0.70;;;21.80;99.90;;;;;;5028904;28;20488;-62
2023/08/19 11:02:15;;;;;;;2.03;0.85;;;21.90;99.90;;;;;;5030524;28;20606;-62
2023/08/19 11:04:45;;;;;;;4.47;0.70;;;21.90;99.90;;;;;;5047643;28;20064;-62
2023/08/19 11:07:13;;;;;;;2.33;0.50;;;22.00;99.90;;;;;;5048531;28;20366;-62
2023/08/19 11:09:48;;;;;;;3.65;0.65;;;22.10;99.90;;;;;;5033059;28;20057;-63
2023/08/19 11:12:21;;;;;;;3.55;0.50;;;22.20;99.90;;;;;;5030515;28;20069;-64
2023/08/19 11:14:52;;;;;;;3.45;0.68;;;22.30;99.90;;;;;;5031104;28;20053;-62
2023/08/19 11:17:28;;;;;;;4.18;0.70;;;22.40;99.90;;;;;;5043986;28;20048;-64
2023/08/19 11:19:58;;;;;;;2.50;0.50;;;22.50;99.90;;;;;;5047744;28;20103;-63
2023/08/19 11:22:25;;;;;;;6.68;0.88;;;22.50;99.90;;;;;;5046344;28;20075;-62
2023/08/19 11:24:55;;;;;;;3.75;0.75;;;22.40;99.90;;;;;;5031977;28;20041;-63
2023/08/19 11:27:23;;;;;;;3.08;0.82;;;22.40;99.90;;;;;;5029438;28;20049;-63
2023/08/19 11:29:51;;;;;;;1.45;0.57;;;22.40;99.90;;;;;;5046618;28;20078;-63
2023/08/19 11:32:20;;;;;;;3.53;0.93;;;22.50;99.90;;;;;;5047448;28;20052;-63
2023/08/19 11:34:48;;;;;;;3.15;0.40;;;22.60;99.90;;;;;;5047705;28;20056;-63
2023/08/19 11:37:20;;;;;;;0.98;0.55;;;22.60;99.90;;;;;;5047665;28;20045;-63
2023/08/19 11:39:48;;;;;;;1.17;0.40;;;22.80;99.90;;;;;;5031125;28;20050;-64
2023/08/19 11:42:16;;;;;;;5.68;0.65;;;23.00;99.90;;;;;;5041577;28;20041;-63
2023/08/19 11:44:44;;;;;;;2.50;0.60;;;23.20;99.90;;;;;;5045770;28;20481;-63
2023/08/19 11:47:13;;;;;;;3.22;0.80;;;23.40;99.90;;;;;;5031090;28;20053;-63
2023/08/19 11:49:44;;;;;;;2.78;0.63;;;23.40;99.90;;;;;;5047952;28;20476;-63
2023/08/19 11:52:20;;;;;;;3.45;0.73;;;23.50;99.90;;;;;;5046827;28;20037;-63
2023/08/19 11:55:03;;;;;;;3.95;0.90;;;23.60;99.90;;;;;;5043834;28;20595;-62
2023/08/19 11:57:35;;;;;;;3.60;0.73;;;23.60;99.90;;;;;;5028209;28;20127;-62
2023/08/19 12:00:15;;;;;;;4.30;1.73;;;23.60;99.90;;;;;;5067300;28;20041;-62
2023/08/19 12:02:45;;;;;;;3.63;0.80;;;23.60;99.90;;;;;;5061226;28;20049;-62
2023/08/19 12:05:26;;;;;;;3.67;0.80;;;23.50;99.90;;;;;;5046258;28;20049;-62
2023/08/19 12:07:55;;;;;;;0.65;0.38;;;23.40;99.90;;;;;;5051483;28;20037;-62
2023/08/19 12:10:23;;;;;;;3.13;0.55;;;23.20;99.90;;;;;;5054050;28;20489;-62
2023/08/19 12:12:58;;;;;;;0.57;0.20;;;23.10;99.90;;;;;;5044132;28;20408;-63
2023/08/19 12:15:26;;;;;;;2.40;0.85;;;22.90;99.90;;;;;;5047826;28;20052;-63
2023/08/19 12:17:54;;;;;;;0.32;0.20;;;22.70;99.90;;;;;;5049477;28;20492;-62
2023/08/19 12:20:24;;;;;;;1.52;0.30;;;22.60;99.90;;;;;;5036408;28;20045;-64
2023/08/19 12:22:53;;;;;;;0.77;0.20;;;22.80;99.90;;;;;;5032748;28;20050;-64
2023/08/19 12:25:22;;;;;;;2.47;0.43;;;23.10;99.90;;;;;;5042242;28;20041;-64
2023/08/19 12:27:58;;;;;;;1.08;0.40;;;23.30;99.90;;;;;;5040135;28;20044;-63
2023/08/19 12:30:25;;;;;;;0.93;0.50;;;23.50;99.90;;;;;;5067970;28;20040;-63
2023/08/19 12:32:53;;;;;;;1.85;0.50;;;23.50;99.90;;;;;;5059890;28;20053;-63
2023/08/19 12:35:21;;;;;;;1.63;0.30;;;23.70;99.90;;;;;;5047627;28;20044;-63
2023/08/19 12:37:49;;;;;;;1.50;0.30;;;24.00;99.90;;;;;;5029627;28;20052;-63
2023/08/19 12:40:17;;;;;;;2.03;0.40;;;23.80;99.90;;;;;;5033181;28;20737;-62
2023/08/19 12:42:45;;;;;;;2.50;0.50;;;23.50;99.90;;;;;;5043557;28;20052;-63
2023/08/19 12:45:16;;;;;;;1.73;0.47;;;23.30;99.90;;;;;;5046624;28;20408;-63
2023/08/19 12:47:44;;;;;;;0.93;0.30;;;23.40;99.90;;;;;;5046130;28;20409;-62
2023/08/19 12:50:12;;;;;;;1.75;0.40;;;23.80;99.90;;;;;;5047966;28;20429;-63
2023/08/19 12:52:43;;;;;;;2.55;0.60;;;24.20;99.90;;;;;;5046482;28;20044;-63
2023/08/19 12:55:13;;;;;;;3.45;1.08;;;24.80;99.90;;;;;;5044009;28;20058;-63